Time;durP1;ratioP1;P1;durP2;ratioP2;P2;SDS_P1;SDS_P2;PMS_P1;PMS_P2;Temp;Humidity;BMP_temperature;BMP_pressure;BME280_temperature;BME280_humidity;BME280_pressure;Samples;Min_cycle;Max_cycle;Signal;HPM_P1;HPM_P2
2021/06/14 00:00:00;;;;;;;2.53;1.20;;;;;;;14.66;56.32;97209.06;5114277;28;20052;-75
2021/06/14 00:02:27;;;;;;;1.20;1.10;;;;;;;14.66;56.23;97204.63;5113368;28;20177;-75
2021/06/14 00:04:54;;;;;;;1.58;1.20;;;;;;;14.69;56.29;97211.28;5114515;28;20043;-75
2021/06/14 00:07:21;;;;;;;0.90;0.90;;;;;;;14.71;56.29;97214.50;5115079;28;20040;-75
2021/06/14 00:09:47;;;;;;;0.95;0.95;;;;;;;14.72;56.31;97203.72;5114507;28;20042;-75
2021/06/14 00:12:20;;;;;;;1.17;0.95;;;;;;;14.75;56.35;97205.88;5113689;28;20058;-75
2021/06/14 00:14:49;;;;;;;1.88;1.20;;;;;;;14.73;56.27;97212.44;5112688;28;20044;-75
2021/06/14 00:17:16;;;;;;;1.35;1.08;;;;;;;14.72;56.51;97203.72;5114280;28;20031;-75
2021/06/14 00:19:47;;;;;;;1.00;1.00;;;;;;;14.70;56.63;97204.94;5114027;28;20038;-75
2021/06/14 00:22:15;;;;;;;1.08;1.02;;;;;;;14.66;56.75;97196.69;5115164;28;20043;-75
2021/06/14 00:24:41;;;;;;;1.60;1.10;;;;;;;14.64;56.93;97200.59;5114673;28;20058;-75
2021/06/14 00:27:08;;;;;;;1.27;1.20;;;;;;;14.57;57.07;97193.56;5114162;28;20399;-75
2021/06/14 00:29:34;;;;;;;1.08;1.00;;;;;;;14.51;57.28;97193.59;5114327;27;20047;-75
2021/06/14 00:32:01;;;;;;;1.20;1.05;;;;;;;14.48;57.50;97199.34;5112594;28;20051;-75
2021/06/14 00:34:27;;;;;;;1.40;1.30;;;;;;;14.45;57.72;97190.06;5112375;28;20055;-74
2021/06/14 00:36:54;;;;;;;1.13;1.02;;;;;;;14.40;57.82;97187.25;5113508;28;20376;-75
2021/06/14 00:39:20;;;;;;;1.40;1.20;;;;;;;14.33;57.82;97183.91;5113803;28;20035;-75
2021/06/14 00:41:47;;;;;;;2.60;1.00;;;;;;;14.24;58.01;97186.06;5113404;28;20403;-75
2021/06/14 00:44:13;;;;;;;1.20;1.10;;;;;;;14.21;58.28;97183.84;5113579;28;20055;-75
2021/06/14 00:46:39;;;;;;;1.23;1.10;;;;;;;14.18;58.28;97181.69;5113989;28;20050;-74
2021/06/14 00:49:05;;;;;;;1.95;1.25;;;;;;;14.15;58.49;97185.56;5114153;28;20032;-75
2021/06/14 00:51:31;;;;;;;1.10;1.00;;;;;;;14.08;58.38;97173.47;5112566;28;20486;-75
2021/06/14 00:54:00;;;;;;;1.63;1.00;;;;;;;14.02;58.71;97178.59;5114303;28;20039;-75
2021/06/14 00:56:27;;;;;;;0.93;0.93;;;;;;;14.01;58.77;97182.28;5114115;28;20097;-75
2021/06/14 00:58:53;;;;;;;0.90;0.90;;;;;;;14.00;58.96;97177.22;5113599;28;20043;-75
2021/06/14 01:01:20;;;;;;;0.85;0.85;;;;;;;13.99;58.94;97172.97;5113310;28;20058;-75
2021/06/14 01:03:46;;;;;;;1.25;1.17;;;;;;;13.97;59.05;97170.56;5113498;28;20039;-75
2021/06/14 01:06:15;;;;;;;1.38;1.27;;;;;;;13.95;59.19;97169.97;5114113;28;20047;-75
2021/06/14 01:08:45;;;;;;;1.90;1.10;;;;;;;13.93;59.25;97165.97;5113114;28;20046;-75
2021/06/14 01:11:38;;;;;;;1.17;1.10;;;;;;;13.88;59.82;97163.16;5113612;28;20028;-75
2021/06/14 01:14:25;;;;;;;1.40;1.08;;;;;;;13.84;59.56;97159.34;5101744;28;20035;-75
2021/06/14 01:17:16;;;;;;;1.63;1.25;;;;;;;13.78;59.95;97153.16;5113377;28;20125;-75
2021/06/14 01:20:21;;;;;;;1.85;1.50;;;;;;;13.76;60.26;97155.19;5112542;28;20034;-76
2021/06/14 01:23:06;;;;;;;0.88;0.88;;;;;;;13.72;59.78;97152.19;5102329;28;20031;-75
2021/06/14 01:25:44;;;;;;;1.20;1.10;;;;;;;13.66;60.21;97147.81;5113831;28;20035;-75
2021/06/14 01:28:13;;;;;;;1.40;1.08;;;;;;;13.61;59.92;97134.50;5112834;28;20040;-75
2021/06/14 01:30:40;;;;;;;1.08;1.00;;;;;;;13.59;60.12;97136.53;5112233;28;20372;-75
2021/06/14 01:33:10;;;;;;;2.30;1.15;;;;;;;13.56;60.42;97135.13;5113953;28;20046;-75
2021/06/14 01:35:47;;;;;;;1.83;1.20;;;;;;;13.53;60.64;97132.94;5111953;28;20048;-75
2021/06/14 01:38:16;;;;;;;1.55;1.23;;;;;;;13.50;60.46;97129.94;5113774;28;20048;-75
2021/06/14 01:40:42;;;;;;;1.23;1.00;;;;;;;13.47;60.50;97125.13;5112624;28;20044;-75
2021/06/14 01:43:13;;;;;;;1.05;0.95;;;;;;;13.45;60.87;97117.41;5113082;28;20039;-75
2021/06/14 01:45:43;;;;;;;1.83;1.20;;;;;;;13.44;60.87;97122.91;5113955;28;20035;-75
2021/06/14 01:48:11;;;;;;;1.70;1.20;;;;;;;13.41;60.78;97118.88;5116723;28;20051;-75
2021/06/14 01:50:38;;;;;;;1.52;1.30;;;;;;;13.38;60.94;97120.13;5117381;28;20047;-74
2021/06/14 01:53:05;;;;;;;1.23;1.00;;;;;;;13.38;60.96;97114.88;5116966;28;20395;-75
2021/06/14 01:55:33;;;;;;;1.65;1.17;;;;;;;13.35;60.98;97117.91;5117029;28;20399;-75
2021/06/14 01:58:00;;;;;;;1.55;1.13;;;;;;;13.35;60.99;97119.75;5116891;27;20036;-75
2021/06/14 02:00:27;;;;;;;1.35;1.08;;;;;;;13.32;61.16;97117.56;5117320;28;20047;-75
2021/06/14 02:02:54;;;;;;;1.35;1.00;;;;;;;13.30;61.15;97112.50;5116759;27;20040;-75
2021/06/14 02:05:25;;;;;;;1.25;1.05;;;;;;;13.26;61.37;97110.50;5115559;28;20039;-75
2021/06/14 02:07:52;;;;;;;1.17;1.02;;;;;;;13.25;61.25;97120.25;5116608;28;20490;-75
2021/06/14 02:10:21;;;;;;;1.00;1.00;;;;;;;13.22;61.47;97115.41;5116744;28;20042;-75
2021/06/14 02:12:48;;;;;;;1.42;1.33;;;;;;;13.18;61.38;97114.22;5116706;28;20043;-75
2021/06/14 02:15:19;;;;;;;2.10;1.40;;;;;;;13.16;61.79;97117.06;5117217;28;20047;-75
2021/06/14 02:17:47;;;;;;;1.25;1.15;;;;;;;13.15;61.63;97107.56;5116539;28;20031;-75
2021/06/14 02:20:15;;;;;;;1.40;1.20;;;;;;;13.13;61.47;97109.63;5116407;27;20032;-75
2021/06/14 02:22:41;;;;;;;1.00;1.00;;;;;;;13.13;61.47;97108.81;5115586;28;20379;-75
2021/06/14 02:25:10;;;;;;;1.50;1.40;;;;;;;13.08;61.67;97098.94;5116806;28;20044;-75
2021/06/14 02:27:37;;;;;;;1.17;1.17;;;;;;;13.04;61.66;97099.56;5116405;28;20047;-75
2021/06/14 02:30:07;;;;;;;1.50;1.30;;;;;;;13.00;61.85;97101.84;5114877;28;20058;-75
2021/06/14 02:32:33;;;;;;;1.13;1.10;;;;;;;12.95;61.95;97104.31;5115178;28;20031;-75
2021/06/14 02:34:59;;;;;;;1.33;1.10;;;;;;;12.93;61.98;97107.16;5116401;28;20511;-75
2021/06/14 02:37:26;;;;;;;1.55;1.38;;;;;;;12.93;62.06;97099.25;5115906;28;20043;-75
2021/06/14 02:39:54;;;;;;;1.10;1.08;;;;;;;12.91;62.06;97100.50;5115851;28;20071;-75
2021/06/14 02:42:21;;;;;;;2.33;1.42;;;;;;;12.90;62.10;97107.59;5116243;28;20031;-75
2021/06/14 02:44:48;;;;;;;2.25;1.30;;;;;;;12.88;62.20;97103.56;5116027;28;20047;-75
2021/06/14 02:47:17;;;;;;;1.73;1.20;;;;;;;12.87;62.30;97097.50;5116110;28;20478;-76
2021/06/14 02:49:44;;;;;;;2.97;1.40;;;;;;;12.87;62.34;97102.78;5104415;28;20031;-75
2021/06/14 02:52:14;;;;;;;1.40;1.30;;;;;;;12.83;62.51;97106.03;5116186;28;20486;-75
2021/06/14 02:55:08;;;;;;;1.42;1.30;;;;;;;12.79;63.88;97103.84;5116212;28;20479;-75
2021/06/14 02:57:35;;;;;;;1.23;1.05;;;;;;;12.73;62.78;97085.47;5101904;28;20039;-75
2021/06/14 03:00:05;;;;;;;1.98;1.20;;;;;;;12.71;63.06;97092.78;5115592;27;20054;-75
2021/06/14 03:02:32;;;;;;;2.42;1.20;;;;;;;12.70;63.02;97091.97;5116022;27;20032;-75
2021/06/14 03:04:58;;;;;;;1.40;1.20;;;;;;;12.68;63.23;97087.94;5115905;28;20040;-75
2021/06/14 03:07:27;;;;;;;0.95;0.95;;;;;;;12.66;63.01;97085.53;5115599;28;20040;-75
2021/06/14 03:09:53;;;;;;;1.30;1.20;;;;;;;12.62;63.20;97070.38;5115636;28;20024;-75
2021/06/14 03:12:20;;;;;;;1.30;1.20;;;;;;;12.61;63.52;97081.94;5114913;28;20052;-76
2021/06/14 03:14:47;;;;;;;1.05;1.05;;;;;;;12.58;63.57;97077.91;5115793;28;20032;-75
2021/06/14 03:17:14;;;;;;;1.15;1.00;;;;;;;12.55;63.53;97076.50;5115320;27;20460;-75
2021/06/14 03:19:44;;;;;;;1.50;1.35;;;;;;;12.53;63.88;97073.28;5115943;28;20027;-75
2021/06/14 03:22:11;;;;;;;1.10;1.00;;;;;;;12.52;63.85;97074.31;5114874;28;20051;-75
2021/06/14 03:24:40;;;;;;;1.48;1.17;;;;;;;12.49;64.21;97074.72;5114363;28;20036;-75
2021/06/14 03:27:08;;;;;;;1.33;1.23;;;;;;;12.47;63.86;97073.31;5115060;28;20042;-75
2021/06/14 03:29:36;;;;;;;1.40;1.30;;;;;;;12.44;64.06;97074.56;5115362;28;20396;-75
2021/06/14 03:32:03;;;;;;;2.08;1.42;;;;;;;12.42;64.16;97068.72;5115807;28;20038;-75
2021/06/14 03:34:32;;;;;;;1.63;1.20;;;;;;;12.42;64.33;97081.06;5115052;27;20463;-75
2021/06/14 03:36:58;;;;;;;1.63;1.52;;;;;;;12.41;64.27;97071.53;5114889;28;20407;-75
2021/06/14 03:39:27;;;;;;;3.42;1.30;;;;;;;12.38;64.39;97073.59;5114735;28;20051;-75
2021/06/14 03:41:53;;;;;;;1.60;1.40;;;;;;;12.38;64.54;97070.94;5115064;27;20039;-75
2021/06/14 03:44:21;;;;;;;1.40;1.30;;;;;;;12.39;64.44;97069.16;5114875;28;20062;-75
2021/06/14 03:46:48;;;;;;;1.45;1.20;;;;;;;12.38;64.50;97067.53;5115121;28;20047;-75
2021/06/14 03:49:15;;;;;;;2.97;1.20;;;;;;;12.38;64.49;97059.63;5114762;28;20407;-75
2021/06/14 03:51:41;;;;;;;3.17;1.25;;;;;;;12.41;64.58;97067.13;5114726;28;20436;-75
2021/06/14 03:54:08;;;;;;;1.40;1.30;;;;;;;12.39;64.57;97059.44;5114508;28;20028;-75
2021/06/14 03:56:36;;;;;;;1.85;1.20;;;;;;;12.38;64.60;97059.63;5114815;28;20027;-76
2021/06/14 03:59:03;;;;;;;1.20;1.10;;;;;;;12.34;64.59;97055.81;5115112;28;20040;-75
2021/06/14 04:01:29;;;;;;;1.17;1.10;;;;;;;12.30;64.69;97054.63;5114474;28;20050;-75
2021/06/14 04:06:41;;;;;;;1.42;1.33;;;;;;;12.31;64.88;97057.06;5114353;28;20031;-75
2021/06/14 04:09:07;;;;;;;1.10;1.05;;;;;;;12.33;64.99;97060.28;5113924;28;20051;-75
2021/06/14 04:11:33;;;;;;;1.17;1.17;;;;;;;12.35;64.96;97066.13;5114385;28;20044;-75
2021/06/14 04:14:00;;;;;;;1.25;1.15;;;;;;;12.37;65.03;97056.22;5113505;28;20059;-75
2021/06/14 04:16:26;;;;;;;1.30;1.20;;;;;;;12.42;64.88;97060.03;5114180;28;20047;-75
2021/06/14 04:18:52;;;;;;;1.45;0.98;;;;;;;12.46;64.95;97055.94;5114370;28;20031;-75
2021/06/14 04:21:18;;;;;;;1.30;1.23;;;;;;;12.52;65.06;97061.16;5114086;28;20052;-75
2021/06/14 04:23:45;;;;;;;1.35;1.25;;;;;;;12.58;65.02;97062.94;5114367;28;20078;-75
2021/06/14 04:26:11;;;;;;;1.90;1.25;;;;;;;12.69;65.10;97069.31;5112974;28;20486;-75
2021/06/14 04:28:39;;;;;;;1.45;1.35;;;;;;;12.83;64.97;97069.19;5114455;28;20407;-75
2021/06/14 04:31:05;;;;;;;1.95;1.30;;;;;;;12.92;64.71;97068.69;5113871;27;20384;-75
2021/06/14 04:33:32;;;;;;;1.52;1.30;;;;;;;13.14;64.69;97076.19;5114105;28;20035;-75
2021/06/14 04:35:58;;;;;;;3.25;1.60;;;;;;;13.26;64.37;97084.16;5114360;28;20048;-75
2021/06/14 04:38:25;;;;;;;1.50;1.40;;;;;;;13.32;63.96;97075.41;5114124;28;20052;-75
2021/06/14 04:40:51;;;;;;;1.65;1.40;;;;;;;13.48;64.09;97069.56;5113927;28;20047;-75
2021/06/14 04:43:17;;;;;;;1.95;1.33;;;;;;;13.73;64.17;97066.84;5114144;28;20055;-75
2021/06/14 04:45:43;;;;;;;1.35;1.20;;;;;;;14.02;63.83;97062.56;5112463;28;20471;-75
2021/06/14 04:48:09;;;;;;;2.22;1.40;;;;;;;14.34;63.59;97058.88;5113483;28;20043;-75
2021/06/14 04:50:36;;;;;;;1.30;1.20;;;;;;;14.64;63.01;97060.69;5113461;28;20054;-75
2021/06/14 04:53:03;;;;;;;1.30;1.20;;;;;;;14.92;62.69;97060.78;5112590;28;20035;-75
2021/06/14 04:55:29;;;;;;;2.15;1.02;;;;;;;15.21;62.07;97052.97;5113007;28;20047;-75
2021/06/14 04:57:55;;;;;;;1.17;0.98;;;;;;;15.48;61.77;97045.31;5112563;28;20047;-75
2021/06/14 05:00:22;;;;;;;1.98;1.45;;;;;;;15.74;61.19;97037.91;5113861;28;20039;-75
2021/06/14 05:02:49;;;;;;;1.40;1.17;;;;;;;16.00;60.72;97033.88;5113773;28;20518;-75
2021/06/14 05:05:16;;;;;;;1.13;0.93;;;;;;;16.24;60.12;97030.06;5114055;28;20035;-75
2021/06/14 05:07:42;;;;;;;1.17;1.02;;;;;;;16.49;59.67;97022.78;5114078;28;20039;-75
2021/06/14 05:10:09;;;;;;;1.70;1.17;;;;;;;16.76;58.97;97014.97;5113685;28;20047;-75
2021/06/14 05:12:35;;;;;;;0.98;0.90;;;;;;;17.02;58.29;97018.78;5113625;28;20035;-75
2021/06/14 05:15:01;;;;;;;2.03;0.98;;;;;;;17.15;57.27;97005.19;5113707;28;20039;-75
2021/06/14 05:17:29;;;;;;;1.52;1.00;;;;;;;17.39;56.64;97004.97;5113761;28;20047;-75
2021/06/14 05:19:55;;;;;;;1.48;0.98;;;;;;;17.65;55.93;96998.06;5113335;28;20408;-75
2021/06/14 05:22:21;;;;;;;1.25;1.08;;;;;;;17.91;55.02;96993.03;5116500;28;20052;-74
2021/06/14 05:24:47;;;;;;;1.13;1.00;;;;;;;18.18;54.12;96985.06;5116423;28;20471;-75
2021/06/14 05:27:14;;;;;;;2.20;1.20;;;;;;;18.33;53.14;96977.22;5117613;28;20036;-75
2021/06/14 05:29:40;;;;;;;1.00;0.90;;;;;;;18.28;52.44;96973.72;5099367;28;20039;-75
2021/06/14 05:32:07;;;;;;;1.08;1.00;;;;;;;18.34;52.13;96967.41;5117697;28;20031;-75
2021/06/14 05:34:33;;;;;;;0.98;0.93;;;;;;;18.54;51.61;96972.84;5117059;28;20078;-75
2021/06/14 05:36:59;;;;;;;1.17;1.08;;;;;;;18.79;51.27;96974.91;5116648;28;20404;-75
2021/06/14 05:39:25;;;;;;;1.27;1.17;;;;;;;19.03;50.82;96966.50;5117385;28;20039;-75
2021/06/14 05:41:52;;;;;;;1.95;1.50;;;;;;;19.29;50.05;96970.06;5116236;28;20036;-75
2021/06/14 05:44:18;;;;;;;1.95;1.20;;;;;;;19.52;49.90;96970.66;5117424;28;20044;-75
2021/06/14 05:46:44;;;;;;;1.95;1.02;;;;;;;19.69;49.29;96981.88;5117071;28;20734;-75
2021/06/14 05:49:10;;;;;;;1.30;1.20;;;;;;;19.96;48.92;96983.56;5117339;27;20040;-75
2021/06/14 05:51:38;;;;;;;2.10;1.10;;;;;;;20.20;48.52;96989.97;5117307;28;20046;-75
2021/06/14 05:54:06;;;;;;;1.20;1.10;;;;;;;20.40;48.03;96986.47;5116899;28;20040;-75
2021/06/14 05:56:32;;;;;;;1.30;1.20;;;;;;;20.58;47.83;96979.84;5116945;27;20043;-75
2021/06/14 05:58:58;;;;;;;1.67;1.10;;;;;;;20.76;47.30;96991.78;5116904;28;20043;-75
2021/06/14 06:01:24;;;;;;;1.00;0.90;;;;;;;20.90;46.80;96993.91;5116557;28;20047;-75
2021/06/14 06:03:51;;;;;;;2.63;0.90;;;;;;;21.14;46.58;96996.75;5116083;28;20043;-75
2021/06/14 06:06:17;;;;;;;1.48;1.00;;;;;;;21.40;45.84;96994.81;5117290;28;20039;-75
2021/06/14 06:08:43;;;;;;;1.73;1.23;;;;;;;21.63;45.27;97002.19;5116746;28;20387;-74
2021/06/14 06:11:09;;;;;;;2.42;1.05;;;;;;;21.85;44.63;96996.44;5117008;28;20046;-75
2021/06/14 06:13:36;;;;;;;1.52;1.08;;;;;;;22.16;44.16;97006.13;5116425;28;20054;-74
2021/06/14 06:16:02;;;;;;;1.05;0.90;;;;;;;22.45;43.58;96996.28;5117154;28;20047;-75
2021/06/14 06:18:29;;;;;;;1.30;0.90;;;;;;;22.68;42.75;97000.09;5116230;28;20031;-74
2021/06/14 06:20:55;;;;;;;0.95;0.88;;;;;;;22.90;42.50;96998.81;5116727;28;20396;-74
2021/06/14 06:23:21;;;;;;;1.20;1.10;;;;;;;23.10;42.00;96987.91;5115294;28;20101;-75
2021/06/14 06:25:47;;;;;;;2.30;1.00;;;;;;;23.26;41.67;96985.84;5116501;28;20035;-74
2021/06/14 06:28:13;;;;;;;3.03;1.23;;;;;;;23.34;41.22;96987.09;5116526;28;20039;-74
2021/06/14 06:30:40;;;;;;;1.45;1.17;;;;;;;23.30;40.98;96991.44;5116354;28;20387;-74
2021/06/14 06:33:08;;;;;;;1.17;0.98;;;;;;;23.35;41.02;96994.06;5115139;27;20046;-74
2021/06/14 06:35:35;;;;;;;1.15;1.05;;;;;;;23.39;40.84;96992.41;5115734;28;20047;-74
2021/06/14 06:38:02;;;;;;;1.10;1.00;;;;;;;22.99;40.20;96993.63;5116230;28;20514;-74
2021/06/14 06:40:29;;;;;;;0.90;0.90;;;;;;;22.80;40.31;96994.34;5116300;28;20039;-74
2021/06/14 06:42:57;;;;;;;1.00;1.00;;;;;;;22.88;40.74;97007.09;5116170;28;20040;-75
2021/06/14 06:45:25;;;;;;;1.70;0.90;;;;;;;23.15;40.70;96999.66;5116190;28;20494;-74
2021/06/14 06:47:52;;;;;;;1.05;0.95;;;;;;;23.36;40.11;96987.59;5115394;28;20044;-75
2021/06/14 06:50:19;;;;;;;1.50;1.00;;;;;;;23.46;39.74;96989.38;5116675;28;20032;-75
2021/06/14 06:52:45;;;;;;;1.25;1.10;;;;;;;23.65;39.61;96984.81;5114745;28;20040;-74
2021/06/14 06:55:14;;;;;;;1.00;1.00;;;;;;;23.84;39.26;96987.53;5114485;28;20397;-75
2021/06/14 06:57:41;;;;;;;1.08;0.93;;;;;;;23.91;38.93;96987.16;5116356;28;20024;-74
2021/06/14 07:00:15;;;;;;;0.70;0.70;;;;;;;23.97;38.35;96991.34;5115569;28;20044;-75
2021/06/14 07:02:41;;;;;;;1.63;1.00;;;;;;;24.03;38.47;96994.75;5116092;28;20383;-75
2021/06/14 07:05:08;;;;;;;0.95;0.90;;;;;;;24.03;38.45;96987.50;5115672;27;20054;-75
2021/06/14 07:07:34;;;;;;;0.95;0.93;;;;;;;;;;5115766;28;20051;-75
2021/06/14 07:10:04;;;;;;;1.00;1.00;;;;;;;23.73;38.08;96993.28;5115327;28;20142;-76
2021/06/14 07:12:37;;;;;;;1.17;1.08;;;;;;;23.67;37.07;96996.03;5115891;28;20043;-75
2021/06/14 07:15:05;;;;;;;1.73;1.00;;;;;;;23.56;37.61;96997.28;5115330;28;20467;-75
2021/06/14 07:17:31;;;;;;;1.05;0.95;;;;;;;23.51;37.43;96994.63;5115222;28;20468;-75
2021/06/14 07:19:58;;;;;;;1.60;1.10;;;;;;;23.57;37.38;96996.16;5115424;28;20031;-75
2021/06/14 07:22:24;;;;;;;1.25;0.73;;;;;;;23.61;37.49;96991.84;5115168;28;20050;-75
2021/06/14 07:24:50;;;;;;;1.67;1.00;;;;;;;23.78;37.50;96996.72;5116149;28;20483;-75
2021/06/14 07:27:17;;;;;;;1.38;1.10;;;;;;;23.62;37.10;97004.16;5114066;28;20455;-75
2021/06/14 07:29:43;;;;;;;0.80;0.65;;;;;;;23.64;37.41;97007.31;5115606;28;20036;-75
2021/06/14 07:32:09;;;;;;;1.35;0.95;;;;;;;23.76;37.10;96998.88;5114643;28;20055;-75
2021/06/14 07:34:35;;;;;;;0.93;0.70;;;;;;;23.70;36.97;96998.13;5114805;28;20059;-74
2021/06/14 07:37:02;;;;;;;0.98;0.80;;;;;;;23.78;36.80;96999.41;5114894;28;20060;-74
2021/06/14 07:39:28;;;;;;;0.88;0.77;;;;;;;23.63;36.45;96995.03;5114922;28;20051;-74
2021/06/14 07:41:55;;;;;;;1.58;1.00;;;;;;;23.50;36.57;96996.53;5115003;28;20044;-74
2021/06/14 07:44:22;;;;;;;1.25;1.15;;;;;;;23.32;36.47;96997.28;5114418;28;20472;-74
2021/06/14 07:46:48;;;;;;;1.40;1.10;;;;;;;23.19;36.77;96989.97;5114594;28;20408;-74
2021/06/14 07:49:14;;;;;;;2.05;1.15;;;;;;;23.31;36.56;96987.69;5113437;28;20051;-74
2021/06/14 07:51:40;;;;;;;1.10;1.00;;;;;;;23.56;36.42;96986.56;5114868;28;20516;-74
2021/06/14 07:54:07;;;;;;;1.35;0.90;;;;;;;23.85;36.14;96975.72;5114696;28;20462;-74
2021/06/14 07:56:35;;;;;;;0.90;0.82;;;;;;;24.16;35.84;96969.09;5114660;28;20039;-74
2021/06/14 07:59:01;;;;;;;1.10;1.00;;;;;;;24.23;35.41;96974.88;5114662;28;20468;-71
2021/06/14 08:01:28;;;;;;;2.03;1.00;;;;;;;24.17;35.78;96971.50;5114616;28;20032;-71
2021/06/14 08:03:54;;;;;;;1.95;0.80;;;;;;;24.30;35.51;96975.31;5114337;27;20028;-71
2021/06/14 08:06:20;;;;;;;1.52;1.20;;;;;;;24.59;35.64;96969.75;5114419;28;20047;-71
2021/06/14 08:08:46;;;;;;;1.00;0.90;;;;;;;24.66;35.39;96967.47;5114115;28;20051;-71
2021/06/14 08:11:15;;;;;;;1.17;1.05;;;;;;;24.63;35.57;96972.63;5114416;28;20036;-71
2021/06/14 08:13:42;;;;;;;1.35;1.10;;;;;;;24.88;35.59;96968.66;5114650;28;20097;-71
2021/06/14 08:16:09;;;;;;;1.05;0.82;;;;;;;25.17;35.25;96971.06;5114201;28;20044;-71
2021/06/14 08:26:25;;;;;;;1.70;1.27;;;;;;;25.26;34.32;96980.03;5114144;28;20031;-71
2021/06/14 08:28:53;;;;;;;0.98;0.98;;;;;;;25.50;34.56;96973.63;5113661;28;20484;-71
2021/06/14 08:31:19;;;;;;;1.10;1.00;;;;;;;25.67;34.21;96973.78;5114290;28;20039;-71
2021/06/14 08:33:46;;;;;;;2.10;1.17;;;;;;;25.70;33.98;96972.38;5113485;28;20035;-71
2021/06/14 08:36:12;;;;;;;0.90;0.80;;;;;;;25.50;33.54;96976.31;5114045;28;20035;-71
2021/06/14 08:38:38;;;;;;;1.70;0.85;;;;;;;25.43;33.60;96973.25;5114235;28;20044;-71
2021/06/14 08:41:05;;;;;;;1.33;1.17;;;;;;;25.45;33.53;96977.22;5113902;28;20388;-71
2021/06/14 08:43:32;;;;;;;2.25;0.88;;;;;;;25.58;33.59;96970.25;5113657;27;20035;-71
2021/06/14 08:45:59;;;;;;;1.83;0.80;;;;;;;25.85;33.56;96963.19;5114103;28;20048;-71
2021/06/14 08:48:26;;;;;;;2.03;0.95;;;;;;;26.06;33.51;96963.53;5113845;28;20043;-71
2021/06/14 08:50:52;;;;;;;1.10;0.80;;;;;;;25.92;33.01;96972.44;5113802;28;20038;-71
2021/06/14 08:53:20;;;;;;;1.35;0.80;;;;;;;25.39;32.96;96967.69;5114048;28;20054;-71
2021/06/14 08:55:46;;;;;;;0.90;0.90;;;;;;;25.34;33.66;96980.41;5111581;28;20039;-71
2021/06/14 08:58:13;;;;;;;1.15;0.90;;;;;;;25.42;33.88;96977.81;5113671;28;20054;-71
2021/06/14 09:00:39;;;;;;;1.90;0.77;;;;;;;25.47;33.33;96966.16;5113414;28;20047;-71
2021/06/14 09:03:05;;;;;;;0.95;0.82;;;;;;;25.23;33.52;96963.72;5112422;28;20043;-71
2021/06/14 09:05:32;;;;;;;0.82;0.80;;;;;;;25.27;33.28;96962.03;5113390;28;20035;-71
2021/06/14 09:08:04;;;;;;;1.10;0.90;;;;;;;25.36;33.04;96949.47;5113846;28;20043;-72
2021/06/14 09:10:33;;;;;;;1.48;0.75;;;;;;;25.48;32.83;96939.03;5113933;28;20040;-71
2021/06/14 09:13:09;;;;;;;1.67;0.90;;;;;;;25.29;32.52;96939.16;5113624;28;20032;-71
2021/06/14 09:15:37;;;;;;;0.95;0.85;;;;;;;25.29;33.07;96947.22;5113228;28;20030;-71
2021/06/14 09:18:14;;;;;;;0.65;0.63;;;;;;;25.28;32.40;96934.91;5114158;28;20051;-71
2021/06/14 09:20:57;;;;;;;1.17;0.80;;;;;;;25.35;33.73;96939.06;5099681;28;20035;-71
2021/06/14 09:23:25;;;;;;;0.98;0.80;;;;;;;25.46;33.28;96935.84;5113741;28;20035;-71
2021/06/14 09:25:53;;;;;;;2.00;1.00;;;;;;;25.41;32.77;96929.78;5113727;28;20032;-74
2021/06/14 09:28:19;;;;;;;2.08;0.80;;;;;;;25.54;32.45;96930.88;5113689;28;20042;-74
2021/06/14 09:30:45;;;;;;;0.70;0.70;;;;;;;25.70;32.26;96932.09;5113824;28;20036;-75
2021/06/14 09:33:23;;;;;;;1.75;0.80;;;;;;;25.83;31.41;96931.25;5113759;28;20047;-75
2021/06/14 09:35:52;;;;;;;0.65;0.65;;;;;;;26.15;32.00;96936.72;5112999;28;20044;-75
2021/06/14 09:38:23;;;;;;;0.65;0.65;;;;;;;26.41;31.29;96945.72;5113810;28;20043;-75
2021/06/14 09:40:54;;;;;;;0.68;0.55;;;;;;;26.51;31.32;96939.31;5114004;28;20047;-74
2021/06/14 09:43:30;;;;;;;0.82;0.70;;;;;;;26.58;30.25;96925.44;5113268;28;20375;-74
2021/06/14 09:46:00;;;;;;;0.80;0.80;;;;;;;26.53;30.68;96939.78;5111836;28;20407;-75
2021/06/14 09:48:28;;;;;;;0.60;0.60;;;;;;;26.53;30.35;96937.09;5113347;28;20046;-74
2021/06/14 09:50:56;;;;;;;0.60;0.60;;;;;;;26.46;29.83;96937.53;5113333;28;20390;-74
2021/06/14 09:53:34;;;;;;;0.98;0.82;;;;;;;26.57;29.98;96937.31;5113432;28;20031;-74
2021/06/14 09:56:14;;;;;;;2.03;0.77;;;;;;;26.36;30.26;96928.94;5112288;28;20341;-74
2021/06/14 09:58:42;;;;;;;1.80;0.70;;;;;;;26.30;29.92;96934.44;5113396;28;20043;-74
2021/06/14 10:01:08;;;;;;;2.70;0.80;;;;;;;26.49;30.39;96933.44;5113050;28;20043;-74
2021/06/14 10:03:44;;;;;;;0.68;0.65;;;;;;;26.56;28.65;96923.00;5113330;28;20035;-75
2021/06/14 10:06:12;;;;;;;0.65;0.60;;;;;;;26.70;29.05;96928.34;5099523;28;20042;-74
2021/06/14 10:08:42;;;;;;;0.50;0.40;;;;;;;26.73;28.20;96923.13;5116503;28;20040;-75
2021/06/14 10:11:11;;;;;;;0.70;0.60;;;;;;;26.94;27.57;96925.25;5116502;28;20047;-74
2021/06/14 10:13:43;;;;;;;1.33;0.68;;;;;;;26.95;26.71;96918.75;5117126;28;20514;-74
2021/06/14 10:16:12;;;;;;;0.63;0.63;;;;;;;26.95;26.93;96915.28;5116606;28;20043;-75
2021/06/14 10:18:44;;;;;;;1.38;0.68;;;;;;;26.98;26.81;96915.44;5107267;28;20048;-75
2021/06/14 10:21:27;;;;;;;0.77;0.70;;;;;;;27.06;25.55;96895.03;5117079;28;20040;-74
2021/06/14 10:23:55;;;;;;;0.70;0.70;;;;;;;27.00;26.51;96905.16;5115811;28;20035;-74
2021/06/14 10:26:29;;;;;;;2.17;0.73;;;;;;;26.97;27.25;96899.63;5117120;27;20035;-74
2021/06/14 10:28:55;;;;;;;0.70;0.67;;;;;;;27.14;26.73;96895.06;5116364;28;20046;-74
2021/06/14 10:31:24;;;;;;;1.15;0.60;;;;;;;27.12;26.95;96889.19;5116423;28;20757;-74
2021/06/14 10:33:52;;;;;;;0.98;0.90;;;;;;;27.25;27.00;96903.66;5116439;28;20024;-74
2021/06/14 10:36:24;;;;;;;3.35;1.75;;;;;;;27.46;27.84;96905.72;5116652;28;20047;-74
2021/06/14 10:38:52;;;;;;;0.63;0.57;;;;;;;27.72;27.13;96897.66;5116299;28;20516;-74
2021/06/14 10:41:19;;;;;;;0.40;0.40;;;;;;;27.73;26.58;96888.47;5115994;28;20043;-75
2021/06/14 10:43:47;;;;;;;1.17;0.70;;;;;;;27.83;26.44;96880.03;5116005;28;20035;-75
2021/06/14 10:46:16;;;;;;;0.77;0.70;;;;;;;27.83;26.36;96871.19;5115979;28;20027;-75
2021/06/14 10:48:46;;;;;;;1.00;0.80;;;;;;;27.95;26.29;96871.34;5102984;28;20028;-74
2021/06/14 10:51:17;;;;;;;1.45;0.80;;;;;;;28.20;26.52;96872.41;5116067;28;20081;-74
2021/06/14 10:53:50;;;;;;;1.65;0.77;;;;;;;28.46;26.65;96869.59;5115865;28;20027;-74
2021/06/14 10:56:23;;;;;;;1.33;0.77;;;;;;;28.73;26.35;96860.28;5115021;28;20043;-74
2021/06/14 10:59:01;;;;;;;1.10;0.73;;;;;;;28.94;26.66;96860.34;5115814;28;20032;-74
2021/06/14 11:01:35;;;;;;;0.80;0.80;;;;;;;28.97;25.90;96852.69;5115826;28;20050;-74
2021/06/14 11:04:04;;;;;;;1.00;1.00;;;;;;;28.93;26.38;96855.25;5116540;28;20039;-74
2021/06/14 11:06:33;;;;;;;1.02;0.73;;;;;;;28.93;26.35;96847.94;5115560;28;20046;-74
2021/06/14 11:09:08;;;;;;;1.10;0.60;;;;;;;28.98;26.35;96846.97;5115941;28;20039;-74
2021/06/14 11:11:57;;;;;;;1.00;0.75;;;;;;;28.73;27.04;96846.81;5115480;28;20479;-75
2021/06/14 11:14:45;;;;;;;2.38;0.70;;;;;;;28.62;25.33;96834.81;5115731;28;20033;-75
2021/06/14 11:17:17;;;;;;;2.40;0.98;;;;;;;28.68;27.24;96843.50;5115465;28;20043;-75
2021/06/14 11:19:50;;;;;;;2.45;0.75;;;;;;;28.87;27.34;96843.06;5114768;28;20031;-75
2021/06/14 11:22:18;;;;;;;2.47;0.82;;;;;;;29.12;26.98;96839.41;5115419;28;20023;-75
2021/06/14 11:24:45;;;;;;;0.95;0.70;;;;;;;29.35;26.83;96837.19;5115566;27;20032;-75
2021/06/14 11:27:12;;;;;;;1.27;0.60;;;;;;;29.03;26.38;96830.56;5115355;28;20415;-75
2021/06/14 11:29:45;;;;;;;0.77;0.65;;;;;;;29.06;26.21;96834.53;5115387;28;20047;-76
2021/06/14 11:32:18;;;;;;;0.68;0.55;;;;;;;28.99;26.81;96829.66;5114052;28;20050;-75
2021/06/14 11:34:51;;;;;;;0.60;0.60;;;;;;;28.93;26.58;96834.44;5115442;28;20044;-75
2021/06/14 11:37:17;;;;;;;1.63;0.65;;;;;;;29.09;26.44;96826.56;5115576;28;20047;-74
2021/06/14 11:39:45;;;;;;;0.43;0.43;;;;;;;29.33;26.05;96817.03;5115105;28;20042;-75
2021/06/14 11:42:14;;;;;;;1.42;0.70;;;;;;;29.51;25.25;96810.34;5114130;28;20090;-75
2021/06/14 11:44:55;;;;;;;0.52;0.52;;;;;;;29.77;25.14;96801.22;5114883;28;20039;-75
2021/06/14 11:47:27;;;;;;;2.00;0.70;;;;;;;29.88;24.72;96796.19;5114715;27;20047;-74
2021/06/14 11:49:58;;;;;;;1.02;0.70;;;;;;;29.80;24.40;96797.06;5101674;28;20043;-74